Time;durP1;ratioP1;P1;durP2;ratioP2;P2;SDS_P1;SDS_P2;PMS_P1;PMS_P2;Temp;Humidity;BMP_temperature;BMP_pressure;BME280_temperature;BME280_humidity;BME280_pressure;Samples;Min_cycle;Max_cycle;Signal;HPM_P1;HPM_P2
2021/01/20 00:01:55;;;;;;;0.65;0.30;;;5.90;63.10;;;;;;5074572;28;20082;-73
2021/01/20 00:04:21;;;;;;;0.43;0.38;;;6.10;62.50;;;;;;5074679;28;20107;-73
2021/01/20 00:06:48;;;;;;;0.73;0.40;;;6.20;61.90;;;;;;5074468;28;20030;-74
2021/01/20 00:09:13;;;;;;;0.30;0.20;;;6.20;61.60;;;;;;5073506;28;20028;-75
2021/01/20 00:11:39;;;;;;;0.57;0.30;;;6.30;61.30;;;;;;5074478;28;20111;-74
2021/01/20 00:14:05;;;;;;;0.40;0.20;;;6.40;60.80;;;;;;5073103;28;20040;-73
2021/01/20 00:16:30;;;;;;;0.20;0.20;;;6.40;60.60;;;;;;5074464;28;20021;-73
2021/01/20 00:18:56;;;;;;;0.30;0.20;;;6.40;60.40;;;;;;5074321;28;20074;-73
2021/01/20 00:21:23;;;;;;;0.65;0.20;;;6.50;60.20;;;;;;5074232;28;20108;-72
2021/01/20 00:23:50;;;;;;;0.40;0.20;;;6.50;59.60;;;;;;5072509;28;20058;-72
2021/01/20 00:26:15;;;;;;;0.93;0.30;;;6.50;59.20;;;;;;5074124;28;20025;-73
2021/01/20 00:28:41;;;;;;;1.77;0.20;;;6.60;59.00;;;;;;5074120;28;20085;-73
2021/01/20 00:31:07;;;;;;;0.75;0.25;;;6.60;58.40;;;;;;5074098;28;20077;-74
2021/01/20 00:33:33;;;;;;;0.55;0.30;;;6.70;58.30;;;;;;5074100;28;20430;-73
2021/01/20 00:35:59;;;;;;;0.57;0.20;;;6.70;58.10;;;;;;5073996;28;20025;-73
2021/01/20 00:38:24;;;;;;;0.88;0.30;;;6.80;58.70;;;;;;5074122;28;20016;-73
2021/01/20 00:40:50;;;;;;;0.40;0.10;;;6.90;57.90;;;;;;5073811;28;20025;-74
2021/01/20 00:43:15;;;;;;;0.38;0.30;;;6.90;57.90;;;;;;5073870;28;20039;-72
2021/01/20 00:45:41;;;;;;;1.05;0.38;;;6.80;57.90;;;;;;5076625;28;20024;-72
2021/01/20 00:48:10;;;;;;;0.20;0.20;;;6.80;58.10;;;;;;5079957;28;20031;-73
2021/01/20 00:50:36;;;;;;;0.38;0.20;;;6.80;58.30;;;;;;5078891;28;20036;-73
2021/01/20 00:53:02;;;;;;;1.10;0.20;;;6.70;58.60;;;;;;5073958;28;20107;-72
2021/01/20 00:55:28;;;;;;;0.52;0.20;;;6.70;58.30;;;;;;5073755;28;20126;-73
2021/01/20 00:57:53;;;;;;;0.38;0.20;;;6.80;57.70;;;;;;5073583;28;20017;-73
2021/01/20 01:00:19;;;;;;;0.98;0.25;;;6.90;57.20;;;;;;5073414;28;20101;-73
2021/01/20 01:02:45;;;;;;;0.40;0.30;;;7.00;56.70;;;;;;5073771;28;20029;-72
2021/01/20 01:05:11;;;;;;;0.22;0.20;;;6.90;56.50;;;;;;5073343;28;20099;-72
2021/01/20 01:07:37;;;;;;;0.30;0.20;;;6.90;56.50;;;;;;5073458;28;20024;-73
2021/01/20 01:10:04;;;;;;;0.20;0.20;;;6.90;56.50;;;;;;5073537;28;20037;-72
2021/01/20 01:12:29;;;;;;;0.77;0.40;;;6.90;56.80;;;;;;5073543;28;20024;-73
2021/01/20 01:14:55;;;;;;;1.48;0.50;;;6.70;57.40;;;;;;5073267;28;20499;-73
2021/01/20 01:17:21;;;;;;;0.65;0.40;;;6.60;58.20;;;;;;5073401;28;20035;-73
2021/01/20 01:19:46;;;;;;;0.13;0.13;;;6.40;58.60;;;;;;5073247;28;20033;-74
2021/01/20 01:22:12;;;;;;;0.13;0.13;;;6.40;59.20;;;;;;5073242;28;20032;-72
2021/01/20 01:24:39;;;;;;;0.75;0.28;;;6.40;59.50;;;;;;5073293;28;20111;-73
2021/01/20 01:27:04;;;;;;;0.10;0.10;;;6.40;59.70;;;;;;5073209;28;20028;-73
2021/01/20 01:29:30;;;;;;;0.20;0.15;;;6.40;60.10;;;;;;5073170;28;20105;-72
2021/01/20 01:31:56;;;;;;;2.78;0.40;;;6.40;60.50;;;;;;5073447;28;20028;-72
2021/01/20 01:34:22;;;;;;;0.38;0.20;;;6.40;60.80;;;;;;5081069;28;20046;-74
2021/01/20 01:36:47;;;;;;;0.90;0.30;;;6.20;61.90;;;;;;5074898;28;20077;-73
2021/01/20 01:39:14;;;;;;;0.60;0.20;;;6.00;63.00;;;;;;5073062;28;20028;-73
2021/01/20 01:41:40;;;;;;;0.43;0.30;;;5.70;64.20;;;;;;5073024;28;20036;-73
2021/01/20 01:44:06;;;;;;;0.30;0.30;;;5.50;65.10;;;;;;5073070;28;20025;-72
2021/01/20 01:46:32;;;;;;;0.82;0.28;;;5.50;66.00;;;;;;5073037;28;20527;-73
2021/01/20 01:48:58;;;;;;;1.35;0.22;;;5.30;66.60;;;;;;5073064;28;20032;-72
2021/01/20 01:51:24;;;;;;;0.40;0.25;;;5.30;67.00;;;;;;5073104;28;20032;-73
2021/01/20 01:53:51;;;;;;;0.30;0.30;;;5.20;67.40;;;;;;5071468;28;20370;-73
2021/01/20 01:56:17;;;;;;;2.05;0.50;;;5.00;67.60;;;;;;5071680;28;20024;-72
2021/01/20 01:58:44;;;;;;;0.30;0.30;;;4.90;68.30;;;;;;5072997;28;20021;-72
2021/01/20 02:01:10;;;;;;;0.20;0.20;;;4.80;68.80;;;;;;5072774;28;20500;-72
2021/01/20 02:03:35;;;;;;;0.30;0.20;;;4.80;69.30;;;;;;5072893;28;20032;-73
2021/01/20 02:06:01;;;;;;;0.75;0.30;;;4.80;69.70;;;;;;5072851;28;20535;-72
2021/01/20 02:08:28;;;;;;;0.40;0.32;;;4.80;69.50;;;;;;5072686;28;20050;-72
2021/01/20 02:10:59;;;;;;;0.30;0.20;;;4.90;69.50;;;;;;5072742;28;20027;-72
2021/01/20 02:13:44;;;;;;;0.63;0.40;;;4.90;68.80;;;;;;5072768;28;20424;-72
2021/01/20 02:16:17;;;;;;;1.75;0.57;;;4.90;68.90;;;;;;5073903;28;20036;-76
2021/01/20 02:18:48;;;;;;;0.93;0.50;;;5.00;68.80;;;;;;5076564;28;20059;-74
2021/01/20 02:21:32;;;;;;;0.65;0.60;;;5.00;68.60;;;;;;5076546;28;20020;-72
2021/01/20 02:24:01;;;;;;;0.73;0.40;;;4.90;68.30;;;;;;5076497;28;20035;-72
2021/01/20 02:26:48;;;;;;;0.50;0.40;;;4.90;68.20;;;;;;5076643;28;20028;-73
2021/01/20 02:29:13;;;;;;;0.93;0.57;;;4.80;68.30;;;;;;5076279;28;20043;-73
2021/01/20 02:31:41;;;;;;;1.27;0.40;;;4.70;68.50;;;;;;5076284;28;20032;-73
2021/01/20 02:34:10;;;;;;;0.90;0.40;;;4.70;68.90;;;;;;5076273;28;20024;-73
2021/01/20 02:36:38;;;;;;;0.60;0.38;;;4.70;69.00;;;;;;5076412;28;20445;-76
2021/01/20 02:39:05;;;;;;;0.47;0.45;;;4.60;68.90;;;;;;5076248;28;20236;-75
2021/01/20 02:41:30;;;;;;;0.38;0.30;;;4.60;69.00;;;;;;5076129;28;20020;-72
2021/01/20 02:44:01;;;;;;;0.93;0.40;;;4.60;69.10;;;;;;5075873;28;20077;-72
2021/01/20 02:46:27;;;;;;;0.38;0.30;;;4.60;69.10;;;;;;5075975;28;20353;-72
2021/01/20 02:48:54;;;;;;;1.75;0.20;;;4.60;68.70;;;;;;5075859;28;20116;-72
2021/01/20 02:51:33;;;;;;;1.00;0.30;;;4.70;68.10;;;;;;5075971;28;20040;-73
2021/01/20 02:54:01;;;;;;;0.52;0.32;;;4.70;68.40;;;;;;5075982;28;20031;-72
2021/01/20 02:56:29;;;;;;;0.70;0.30;;;5.00;65.60;;;;;;5075970;28;20358;-73
2021/01/20 02:58:55;;;;;;;0.30;0.30;;;5.10;63.80;;;;;;5075839;28;20538;-72
2021/01/20 03:01:27;;;;;;;1.15;0.40;;;5.30;62.90;;;;;;5075694;28;20116;-73
2021/01/20 03:03:55;;;;;;;1.67;0.50;;;5.40;61.70;;;;;;5075827;28;20021;-74
2021/01/20 03:06:22;;;;;;;0.15;0.13;;;5.50;60.20;;;;;;5075718;28;20398;-73
2021/01/20 03:08:49;;;;;;;0.47;0.30;;;5.70;59.10;;;;;;5075574;28;20079;-75
2021/01/20 03:11:15;;;;;;;0.20;0.20;;;5.90;58.00;;;;;;5075787;28;20012;-76
2021/01/20 03:13:43;;;;;;;0.50;0.20;;;6.00;56.90;;;;;;5075582;28;20099;-75
2021/01/20 03:16:08;;;;;;;0.63;0.20;;;6.30;55.90;;;;;;5075672;28;20020;-80
2021/01/20 03:18:34;;;;;;;1.10;0.30;;;6.40;55.00;;;;;;5075620;28;20377;-79
2021/01/20 03:21:00;;;;;;;0.43;0.30;;;6.50;54.50;;;;;;5075472;28;20027;-77
2021/01/20 03:23:25;;;;;;;0.22;0.20;;;6.50;54.30;;;;;;5075616;28;20048;-81
2021/01/20 03:25:51;;;;;;;0.50;0.40;;;6.30;54.70;;;;;;5075457;28;20426;-79
2021/01/20 03:28:16;;;;;;;1.02;0.73;;;6.20;55.40;;;;;;5074183;28;20025;-80
2021/01/20 03:30:42;;;;;;;0.60;0.38;;;6.10;56.60;;;;;;5075242;28;20044;-79
2021/01/20 03:33:08;;;;;;;1.40;0.32;;;5.90;57.60;;;;;;5075296;28;20521;-81
2021/01/20 03:35:36;;;;;;;0.57;0.30;;;5.70;58.50;;;;;;5075394;28;20021;-79
2021/01/20 03:38:03;;;;;;;0.52;0.30;;;5.60;59.40;;;;;;5075212;28;20108;-82
2021/01/20 03:40:28;;;;;;;0.40;0.35;;;5.40;60.30;;;;;;5075298;28;20024;-82
2021/01/20 03:42:54;;;;;;;0.82;0.40;;;5.30;61.20;;;;;;5074990;28;20021;-80
2021/01/20 03:45:20;;;;;;;0.55;0.50;;;5.20;61.80;;;;;;5075103;28;20024;-80
2021/01/20 03:47:45;;;;;;;0.28;0.28;;;5.10;62.40;;;;;;5075101;28;20103;-80
2021/01/20 03:50:12;;;;;;;1.55;0.50;;;5.00;62.90;;;;;;5073592;28;20035;-77
2021/01/20 03:52:37;;;;;;;0.38;0.35;;;5.00;63.40;;;;;;5074953;28;20016;-79
2021/01/20 03:55:03;;;;;;;0.55;0.30;;;4.90;63.70;;;;;;5074995;28;20021;-81
2021/01/20 03:57:29;;;;;;;1.17;0.60;;;4.80;64.20;;;;;;5074945;28;20108;-75
2021/01/20 03:59:54;;;;;;;1.67;0.70;;;4.80;64.50;;;;;;5074854;28;20064;-75
2021/01/20 04:02:20;;;;;;;1.42;0.57;;;4.80;64.90;;;;;;5074606;28;20049;-80
2021/01/20 04:04:45;;;;;;;1.00;0.50;;;4.70;65.30;;;;;;5074760;28;20682;-81
2021/01/20 04:07:11;;;;;;;1.33;0.50;;;4.60;65.70;;;;;;5074766;28;20461;-76
2021/01/20 04:09:36;;;;;;;0.88;0.50;;;4.50;66.40;;;;;;5074541;28;20166;-81
2021/01/20 04:12:02;;;;;;;1.45;0.52;;;4.50;66.90;;;;;;5073180;28;20047;-80
2021/01/20 04:14:28;;;;;;;1.85;0.60;;;4.40;67.40;;;;;;5073056;28;20040;-80
2021/01/20 04:16:53;;;;;;;1.40;0.70;;;4.40;67.90;;;;;;5074359;28;20024;-80
2021/01/20 04:19:19;;;;;;;1.52;1.23;;;4.20;68.40;;;;;;5073012;28;20024;-81
2021/01/20 04:21:44;;;;;;;2.78;1.45;;;4.20;68.60;;;;;;5074302;28;20029;-72
2021/01/20 04:24:15;;;;;;;3.08;1.35;;;4.00;68.00;;;;;;5074341;28;20020;-73
2021/01/20 04:26:41;;;;;;;2.97;1.20;;;3.80;68.00;;;;;;5074052;28;20028;-72
2021/01/20 04:29:07;;;;;;;2.15;1.35;;;3.70;68.50;;;;;;5074005;28;20036;-72
2021/01/20 04:31:33;;;;;;;3.67;1.55;;;3.60;68.70;;;;;;5074160;28;20017;-72
2021/01/20 04:33:58;;;;;;;4.43;2.10;;;3.50;69.00;;;;;;5073923;28;20115;-73
2021/01/20 04:36:24;;;;;;;3.33;1.98;;;3.40;68.90;;;;;;5074021;28;20020;-72
2021/01/20 04:38:50;;;;;;;4.85;2.45;;;3.40;69.00;;;;;;5073481;28;20122;-72
2021/01/20 04:41:15;;;;;;;3.25;2.00;;;3.30;69.20;;;;;;5073882;28;20100;-72
2021/01/20 04:43:42;;;;;;;2.67;1.90;;;3.20;69.40;;;;;;5073733;28;20362;-72
2021/01/20 04:46:09;;;;;;;4.57;2.20;;;3.20;69.90;;;;;;5073664;28;20028;-72
2021/01/20 04:48:35;;;;;;;5.03;2.22;;;3.10;70.50;;;;;;5073636;28;20027;-72
2021/01/20 04:51:06;;;;;;;3.58;2.30;;;3.00;70.70;;;;;;5073672;28;20087;-73
2021/01/20 04:53:32;;;;;;;4.57;2.65;;;2.90;71.20;;;;;;5073643;28;20474;-73
2021/01/20 04:56:06;;;;;;;5.65;2.05;;;2.90;71.50;;;;;;5073519;28;20497;-73
2021/01/20 04:58:32;;;;;;;3.45;2.25;;;2.90;71.70;;;;;;5073487;28;20020;-74
2021/01/20 05:00:58;;;;;;;5.43;2.38;;;2.90;71.40;;;;;;5073295;28;20041;-72
2021/01/20 05:03:24;;;;;;;3.58;2.70;;;2.90;71.10;;;;;;5073431;28;20013;-72
2021/01/20 05:05:51;;;;;;;4.47;2.15;;;3.00;71.00;;;;;;5073462;28;20024;-71
2021/01/20 05:08:17;;;;;;;3.90;1.90;;;3.00;71.10;;;;;;5073275;28;20024;-71
2021/01/20 05:10:43;;;;;;;3.58;1.77;;;3.00;70.90;;;;;;5073180;28;20044;-72
2021/01/20 05:13:28;;;;;;;5.25;2.60;;;3.00;70.80;;;;;;5073100;28;20103;-72
2021/01/20 05:15:55;;;;;;;4.80;2.25;;;3.10;71.10;;;;;;5073209;28;20032;-72
2021/01/20 05:18:21;;;;;;;10.18;2.88;;;3.10;71.20;;;;;;5073358;28;20028;-73
2021/01/20 05:20:47;;;;;;;12.35;2.40;;;3.10;72.20;;;;;;5073113;28;20036;-73
2021/01/20 05:23:13;;;;;;;9.48;2.25;;;3.50;76.80;;;;;;5073284;28;20035;-73
2021/01/20 05:25:41;;;;;;;13.23;2.58;;;3.80;74.40;;;;;;5072978;28;20059;-73
2021/01/20 05:28:25;;;;;;;7.32;2.30;;;4.10;73.60;;;;;;5073031;28;20024;-73
2021/01/20 05:30:56;;;;;;;3.80;2.10;;;4.60;73.20;;;;;;5073068;28;20036;-74
2021/01/20 05:33:23;;;;;;;5.57;2.30;;;4.40;68.00;;;;;;5071737;28;20522;-74
2021/01/20 05:36:08;;;;;;;4.35;2.35;;;4.00;66.50;;;;;;5073035;28;20033;-75
2021/01/20 05:38:46;;;;;;;3.53;2.25;;;3.70;67.20;;;;;;5073070;28;20074;-74
2021/01/20 05:41:29;;;;;;;4.82;2.40;;;3.50;68.20;;;;;;5073344;28;20082;-73
2021/01/20 05:44:13;;;;;;;5.00;2.72;;;3.30;69.00;;;;;;5073043;28;20024;-76
2021/01/20 05:46:42;;;;;;;5.57;2.90;;;3.20;69.60;;;;;;5073039;28;20107;-74
2021/01/20 05:49:20;;;;;;;5.40;2.80;;;3.00;69.80;;;;;;5072946;28;20032;-73
2021/01/20 05:51:46;;;;;;;5.85;2.53;;;3.00;70.20;;;;;;5074006;28;20056;-74
2021/01/20 05:54:11;;;;;;;6.45;2.97;;;2.90;70.40;;;;;;5077336;28;20051;-73
2021/01/20 05:56:38;;;;;;;6.22;3.15;;;2.80;70.60;;;;;;5077309;28;20064;-74
2021/01/20 05:59:09;;;;;;;9.55;3.55;;;2.80;70.90;;;;;;5077723;28;20421;-74
2021/01/20 06:01:35;;;;;;;14.93;3.60;;;2.80;71.00;;;;;;5083374;28;20052;-72
2021/01/20 06:04:01;;;;;;;8.13;3.70;;;2.70;70.90;;;;;;5088204;28;20050;-72
2021/01/20 06:06:28;;;;;;;11.50;4.10;;;2.70;70.90;;;;;;5091753;28;20068;-72
2021/01/20 06:08:55;;;;;;;9.60;4.82;;;2.60;70.80;;;;;;5086490;28;20032;-73
2021/01/20 06:11:21;;;;;;;8.20;4.10;;;2.60;70.90;;;;;;5079178;28;20028;-74
2021/01/20 06:13:47;;;;;;;13.93;4.93;;;2.60;71.20;;;;;;5077020;28;20021;-73
2021/01/20 06:16:15;;;;;;;8.18;4.07;;;2.60;71.40;;;;;;5077388;28;20099;-73
2021/01/20 06:19:08;;;;;;;8.38;4.18;;;2.60;71.50;;;;;;5076768;28;20484;-73
2021/01/20 06:21:35;;;;;;;6.55;3.90;;;2.60;71.40;;;;;;5062165;28;20072;-80
2021/01/20 06:24:11;;;;;;;6.35;3.78;;;2.70;71.60;;;;;;5076679;28;20437;-77
2021/01/20 06:26:53;;;;;;;7.70;3.60;;;2.70;71.60;;;;;;5075246;28;20112;-77
2021/01/20 06:29:25;;;;;;;8.60;3.80;;;2.70;71.70;;;;;;5076144;28;20052;-76
2021/01/20 06:31:52;;;;;;;7.38;3.90;;;2.80;71.50;;;;;;5075037;28;20078;-75
2021/01/20 06:34:17;;;;;;;7.85;3.70;;;2.90;71.20;;;;;;5075052;28;20032;-80
2021/01/20 06:36:43;;;;;;;6.40;4.10;;;2.90;70.70;;;;;;5076425;28;20017;-80
2021/01/20 06:39:27;;;;;;;6.65;4.07;;;3.00;70.30;;;;;;5076260;28;20507;-80
2021/01/20 06:41:54;;;;;;;9.57;4.22;;;3.00;69.70;;;;;;5074829;28;20025;-80
2021/01/20 06:44:19;;;;;;;5.68;3.58;;;3.00;69.50;;;;;;5076027;28;20476;-76
2021/01/20 06:46:57;;;;;;;8.05;4.05;;;2.90;69.50;;;;;;5074481;28;20020;-79
2021/01/20 06:49:27;;;;;;;9.57;4.03;;;3.00;69.50;;;;;;5074521;28;20119;-80
2021/01/20 06:52:15;;;;;;;8.05;4.40;;;3.00;69.50;;;;;;5075792;28;20028;-78
2021/01/20 06:54:46;;;;;;;7.47;4.13;;;2.90;69.60;;;;;;5074514;28;20024;-73
2021/01/20 06:57:32;;;;;;;7.32;3.85;;;2.90;69.70;;;;;;5075839;28;20067;-72
2021/01/20 07:00:10;;;;;;;6.80;4.07;;;2.90;69.50;;;;;;5075652;28;20020;-81
2021/01/20 07:02:36;;;;;;;7.82;4.57;;;2.90;69.50;;;;;;5074312;28;20032;-78
2021/01/20 07:05:04;;;;;;;7.38;3.92;;;2.90;69.50;;;;;;5075839;28;20024;-83
2021/01/20 07:07:50;;;;;;;6.32;4.10;;;2.90;69.50;;;;;;5075558;28;20036;-83
2021/01/20 07:10:18;;;;;;;7.20;4.13;;;3.00;69.20;;;;;;5075884;28;20067;-81
2021/01/20 07:13:13;;;;;;;7.82;4.57;;;3.00;69.00;;;;;;5075859;28;20016;-82
2021/01/20 07:15:40;;;;;;;6.07;3.83;;;3.10;68.90;;;;;;5075743;28;20017;-82
2021/01/20 07:18:07;;;;;;;5.55;3.78;;;3.10;68.80;;;;;;5075654;28;20017;-82
2021/01/20 07:20:33;;;;;;;8.82;5.00;;;3.20;69.10;;;;;;5075570;28;20040;-82
2021/01/20 07:23:00;;;;;;;9.57;5.38;;;3.20;68.30;;;;;;5075816;28;20028;-82
2021/01/20 07:25:26;;;;;;;9.65;4.47;;;3.20;68.30;;;;;;5075953;28;20075;-83
2021/01/20 07:27:55;;;;;;;12.80;7.15;;;3.20;68.30;;;;;;5074154;28;20552;-82
2021/01/20 07:30:22;;;;;;;9.55;5.30;;;3.20;68.20;;;;;;5075568;28;20036;-82
2021/01/20 07:32:48;;;;;;;8.68;4.90;;;3.20;68.30;;;;;;5075923;28;20027;-83
2021/01/20 07:35:24;;;;;;;7.43;4.40;;;3.30;68.10;;;;;;5075463;28;20029;-81
2021/01/20 07:38:00;;;;;;;5.53;3.45;;;3.40;67.70;;;;;;5075290;28;20047;-82
2021/01/20 07:40:33;;;;;;;6.63;3.53;;;3.50;67.50;;;;;;5075329;28;20044;-81
2021/01/20 07:43:00;;;;;;;6.85;3.50;;;3.60;66.80;;;;;;5075970;28;20025;-81
2021/01/20 07:45:37;;;;;;;5.00;2.92;;;3.70;66.20;;;;;;5075757;28;20515;-79
2021/01/20 07:48:05;;;;;;;4.45;2.75;;;3.80;65.90;;;;;;5074757;28;20028;-81
2021/01/20 07:50:45;;;;;;;6.10;3.72;;;4.00;65.40;;;;;;5074855;28;20423;-82
2021/01/20 07:53:13;;;;;;;5.25;2.72;;;4.00;65.20;;;;;;5074915;28;20017;-82
2021/01/20 07:55:39;;;;;;;4.50;2.78;;;4.10;65.00;;;;;;5075028;28;20029;-82
2021/01/20 07:58:05;;;;;;;7.53;4.07;;;4.10;64.50;;;;;;5074974;28;20123;-81
2021/01/20 08:00:39;;;;;;;6.32;3.38;;;4.20;64.30;;;;;;5074709;28;20068;-80
2021/01/20 08:03:04;;;;;;;5.50;2.90;;;4.30;64.10;;;;;;5074896;28;20032;-81
2021/01/20 08:05:31;;;;;;;4.90;2.83;;;4.40;63.30;;;;;;5075108;28;20031;-80
2021/01/20 08:08:13;;;;;;;5.85;2.55;;;4.40;62.70;;;;;;5075257;28;20028;-83
2021/01/20 08:10:41;;;;;;;4.28;1.92;;;4.50;62.50;;;;;;5075336;28;20064;-83
2021/01/20 08:13:09;;;;;;;4.53;2.72;;;4.60;62.00;;;;;;5077000;28;20435;-81
2021/01/20 08:15:42;;;;;;;4.35;2.60;;;4.70;61.60;;;;;;5090762;28;20004;-77
2021/01/20 08:18:09;;;;;;;4.13;2.58;;;4.70;61.40;;;;;;5097894;28;20025;-73
2021/01/20 08:20:35;;;;;;;4.28;2.42;;;4.70;61.20;;;;;;5096651;28;20040;-76
2021/01/20 08:23:04;;;;;;;5.35;2.50;;;4.80;61.10;;;;;;5076902;28;20032;-74
2021/01/20 08:25:30;;;;;;;5.70;2.83;;;4.80;61.00;;;;;;5074222;28;20033;-74
2021/01/20 08:27:55;;;;;;;7.05;3.22;;;4.80;61.10;;;;;;5074953;28;20031;-73
2021/01/20 08:30:34;;;;;;;6.10;3.45;;;4.80;61.20;;;;;;5073909;28;20485;-75
2021/01/20 08:33:01;;;;;;;5.15;2.92;;;4.80;61.10;;;;;;5073962;28;20028;-73
2021/01/20 08:35:29;;;;;;;4.35;2.25;;;4.80;61.00;;;;;;5073924;28;20032;-77
2021/01/20 08:37:55;;;;;;;3.15;2.30;;;4.80;61.00;;;;;;5073816;28;20025;-74
2021/01/20 08:40:21;;;;;;;5.53;2.97;;;4.90;61.10;;;;;;5073694;28;20078;-73
2021/01/20 08:42:46;;;;;;;6.10;2.88;;;4.90;61.00;;;;;;5073613;28;20103;-73
2021/01/20 08:45:16;;;;;;;7.63;3.75;;;4.90;61.00;;;;;;5072252;28;20523;-74
2021/01/20 08:47:47;;;;;;;5.57;3.28;;;5.00;60.30;;;;;;5073253;28;20031;-73
2021/01/20 08:50:15;;;;;;;7.03;3.35;;;5.00;60.00;;;;;;5073412;28;20040;-73
2021/01/20 08:52:43;;;;;;;7.60;2.92;;;5.00;59.70;;;;;;5073233;28;20020;-73
2021/01/20 08:55:10;;;;;;;3.13;2.58;;;5.10;59.90;;;;;;5073522;28;20119;-73
2021/01/20 08:57:36;;;;;;;6.28;2.60;;;5.10;59.70;;;;;;5073338;28;20025;-75
2021/01/20 09:00:03;;;;;;;4.63;3.00;;;5.10;59.60;;;;;;5073132;28;20032;-78
2021/01/20 09:02:28;;;;;;;5.85;3.08;;;5.10;59.60;;;;;;5073046;28;20031;-73
2021/01/20 09:04:54;;;;;;;3.58;2.55;;;5.20;59.40;;;;;;5073238;28;20020;-74
2021/01/20 09:07:19;;;;;;;4.93;2.28;;;5.30;59.20;;;;;;5072117;28;20052;-74
2021/01/20 09:09:45;;;;;;;7.47;2.80;;;5.30;59.00;;;;;;5073032;28;20043;-74
2021/01/20 09:12:11;;;;;;;5.68;2.85;;;5.40;58.70;;;;;;5071667;28;20468;-73
2021/01/20 09:14:38;;;;;;;5.28;2.75;;;5.40;58.60;;;;;;5073105;28;20029;-76
2021/01/20 09:17:05;;;;;;;5.10;2.58;;;5.50;58.60;;;;;;5073130;28;20027;-73
2021/01/20 09:19:31;;;;;;;5.57;2.70;;;5.60;58.30;;;;;;5072936;28;20028;-72
2021/01/20 09:21:56;;;;;;;4.85;2.53;;;5.60;58.10;;;;;;5072804;28;20020;-73
2021/01/20 09:24:22;;;;;;;5.70;2.70;;;5.70;58.10;;;;;;5073075;28;20457;-77
2021/01/20 09:26:48;;;;;;;5.18;2.67;;;5.80;58.00;;;;;;5072838;28;20411;-75
2021/01/20 09:29:14;;;;;;;4.68;2.60;;;5.80;57.80;;;;;;5072781;28;20480;-73
2021/01/20 09:31:40;;;;;;;4.80;2.65;;;5.90;57.90;;;;;;5072530;28;20038;-74
2021/01/20 09:34:07;;;;;;;4.00;2.63;;;5.90;57.80;;;;;;5072848;28;20077;-73
2021/01/20 09:36:33;;;;;;;6.35;3.20;;;6.00;57.70;;;;;;5072911;28;20021;-75
2021/01/20 09:38:59;;;;;;;8.23;3.20;;;6.00;57.80;;;;;;5072607;28;20024;-73
2021/01/20 09:41:28;;;;;;;5.80;3.10;;;6.00;57.90;;;;;;5072864;28;20496;-75
2021/01/20 09:43:54;;;;;;;4.85;3.45;;;6.10;58.10;;;;;;5072522;28;20071;-72
2021/01/20 09:46:20;;;;;;;11.38;3.08;;;6.10;57.70;;;;;;5071203;28;20052;-75
2021/01/20 09:48:46;;;;;;;5.38;3.05;;;6.30;64.30;;;;;;5072571;28;20385;-76
2021/01/20 09:51:12;;;;;;;5.03;2.75;;;6.90;66.90;;;;;;5072618;28;20029;-77
2021/01/20 09:53:38;;;;;;;4.15;2.58;;;7.10;61.20;;;;;;5072726;28;20060;-76
2021/01/20 09:56:04;;;;;;;6.05;3.22;;;7.50;60.10;;;;;;5072275;28;20032;-74
2021/01/20 09:58:30;;;;;;;3.88;2.58;;;7.60;56.00;;;;;;5072922;28;20041;-75
2021/01/20 10:00:56;;;;;;;6.03;3.08;;;7.90;56.10;;;;;;5072124;28;20106;-75
2021/01/20 10:03:22;;;;;;;9.05;4.75;;;7.90;55.20;;;;;;5072542;28;20083;-75
2021/01/20 10:05:48;;;;;;;6.45;3.08;;;8.00;53.40;;;;;;5072128;28;20056;-75
2021/01/20 10:08:13;;;;;;;5.60;2.88;;;7.90;53.70;;;;;;5072535;28;20024;-75
2021/01/20 10:10:39;;;;;;;4.85;3.40;;;8.00;53.70;;;;;;5072348;28;20094;-76
2021/01/20 10:13:05;;;;;;;5.15;2.75;;;8.10;53.40;;;;;;5072622;28;20020;-74
2021/01/20 10:15:30;;;;;;;4.97;2.53;;;8.20;52.40;;;;;;5072380;28;20016;-74
2021/01/20 10:17:56;;;;;;;6.43;2.80;;;8.20;52.30;;;;;;5072420;28;20032;-76
2021/01/20 10:20:23;;;;;;;5.78;3.35;;;8.10;51.50;;;;;;5072339;28;20039;-74
2021/01/20 10:22:49;;;;;;;5.55;2.70;;;8.20;51.40;;;;;;5072572;28;20484;-75
2021/01/20 10:25:15;;;;;;;6.63;3.03;;;8.20;51.00;;;;;;5072556;28;20028;-74
2021/01/20 10:27:41;;;;;;;6.72;3.45;;;8.30;50.60;;;;;;5072312;28;20107;-76
2021/01/20 10:30:07;;;;;;;6.38;3.38;;;8.30;50.00;;;;;;5072475;28;20587;-75
2021/01/20 10:32:32;;;;;;;6.00;3.30;;;8.20;49.70;;;;;;5072437;28;20107;-75
2021/01/20 10:34:58;;;;;;;5.78;3.17;;;8.00;50.10;;;;;;5072406;28;20048;-72
2021/01/20 10:37:24;;;;;;;5.32;3.08;;;8.00;50.20;;;;;;5073862;28;20100;-72
2021/01/20 10:39:49;;;;;;;6.80;3.40;;;7.90;50.60;;;;;;5076110;28;20036;-72
2021/01/20 10:42:15;;;;;;;5.15;3.30;;;7.80;50.70;;;;;;5074685;28;20036;-72
2021/01/20 10:44:40;;;;;;;4.85;3.20;;;7.80;51.00;;;;;;5075772;28;20044;-72
2021/01/20 10:47:06;;;;;;;6.05;3.63;;;7.90;51.20;;;;;;5075937;28;20060;-72
2021/01/20 10:49:31;;;;;;;5.72;3.17;;;7.90;51.10;;;;;;5075844;28;20032;-73
2021/01/20 10:51:57;;;;;;;5.60;3.67;;;8.00;50.90;;;;;;5075934;28;20476;-72
2021/01/20 10:54:22;;;;;;;6.13;3.50;;;8.00;50.80;;;;;;5075697;28;20039;-72
2021/01/20 10:56:48;;;;;;;5.38;3.63;;;8.20;50.60;;;;;;5075881;28;20036;-72
2021/01/20 10:59:13;;;;;;;4.30;2.85;;;8.30;50.60;;;;;;5075789;28;20037;-72
2021/01/20 11:01:39;;;;;;;4.90;3.15;;;8.40;50.30;;;;;;5073389;28;20140;-72
2021/01/20 11:04:05;;;;;;;5.82;2.95;;;8.50;50.00;;;;;;5074441;28;20052;-75
2021/01/20 11:06:30;;;;;;;4.00;2.83;;;8.60;49.40;;;;;;5074360;28;20025;-73
2021/01/20 11:08:59;;;;;;;6.38;3.22;;;8.60;49.00;;;;;;5074339;28;20071;-73
2021/01/20 11:11:27;;;;;;;6.28;3.10;;;8.60;49.00;;;;;;5074393;28;20033;-72
2021/01/20 11:13:53;;;;;;;5.70;3.70;;;8.50;48.90;;;;;;5073111;28;20386;-73
2021/01/20 11:16:18;;;;;;;5.93;3.40;;;8.40;49.10;;;;;;5072894;28;20028;-73
2021/01/20 11:18:44;;;;;;;5.75;3.60;;;8.50;49.30;;;;;;5073788;28;20517;-73
2021/01/20 11:21:14;;;;;;;3.80;2.70;;;8.70;49.10;;;;;;5074082;28;20037;-73
2021/01/20 11:23:41;;;;;;;3.72;2.47;;;8.80;48.50;;;;;;5073841;28;20062;-74
2021/01/20 11:26:08;;;;;;;5.35;2.60;;;8.90;48.10;;;;;;5074059;28;20020;-74
2021/01/20 11:28:34;;;;;;;4.28;2.72;;;8.90;47.70;;;;;;5074317;28;20020;-73
2021/01/20 11:30:59;;;;;;;4.15;2.50;;;9.00;47.50;;;;;;5073905;28;20085;-72
2021/01/20 11:33:25;;;;;;;3.17;2.10;;;9.00;47.30;;;;;;5074197;28;20070;-79
2021/01/20 11:35:51;;;;;;;6.18;2.35;;;9.20;46.90;;;;;;5075456;28;20586;-73
2021/01/20 11:38:16;;;;;;;3.25;2.20;;;9.40;46.50;;;;;;5075292;28;20062;-73
2021/01/20 11:40:42;;;;;;;3.92;2.47;;;9.40;46.00;;;;;;5089121;28;20465;-72
2021/01/20 11:43:08;;;;;;;4.30;2.40;;;9.60;45.70;;;;;;5084073;28;20051;-73
2021/01/20 11:45:35;;;;;;;4.72;2.05;;;9.80;45.20;;;;;;5086895;28;20020;-72
2021/01/20 11:48:02;;;;;;;2.92;2.08;;;10.10;44.70;;;;;;5079172;28;20024;-72
2021/01/20 11:50:28;;;;;;;3.83;2.20;;;10.20;44.20;;;;;;5073119;28;20119;-72
2021/01/20 11:52:54;;;;;;;3.13;1.70;;;10.40;43.90;;;;;;5074405;28;20385;-73
2021/01/20 11:55:21;;;;;;;2.13;1.48;;;10.70;43.40;;;;;;5074133;28;20036;-73
2021/01/20 11:57:47;;;;;;;2.67;1.80;;;11.20;42.60;;;;;;5074009;28;20099;-73
2021/01/20 12:00:14;;;;;;;3.67;1.60;;;11.60;41.70;;;;;;5054538;28;542062;-73
2021/01/20 12:02:41;;;;;;;3.90;1.50;;;12.10;40.90;;;;;;5073104;28;20123;-74
2021/01/20 12:05:08;;;;;;;3.00;1.23;;;12.50;39.80;;;;;;5074177;28;20481;-72
2021/01/20 12:07:38;;;;;;;4.43;1.33;;;12.90;38.80;;;;;;5074800;28;20068;-72
2021/01/20 12:10:05;;;;;;;2.38;1.52;;;13.50;37.80;;;;;;5074238;28;20063;-72
2021/01/20 12:12:31;;;;;;;1.75;1.35;;;14.00;36.60;;;;;;5074853;28;20448;-72
2021/01/20 12:14:56;;;;;;;3.33;1.60;;;14.30;35.50;;;;;;5074474;28;20024;-72
2021/01/20 12:17:22;;;;;;;2.95;1.40;;;15.00;34.70;;;;;;5074194;28;20032;-72
2021/01/20 12:19:48;;;;;;;3.10;1.45;;;15.70;33.90;;;;;;5072910;28;20060;-72
2021/01/20 12:22:13;;;;;;;2.58;1.30;;;16.30;32.80;;;;;;5074126;28;20052;-72
2021/01/20 12:24:39;;;;;;;2.92;1.70;;;16.70;31.50;;;;;;5073948;28;20040;-72
2021/01/20 12:27:04;;;;;;;2.08;1.13;;;17.20;30.70;;;;;;5073971;28;20028;-73
2021/01/20 12:29:30;;;;;;;3.17;1.20;;;17.60;29.80;;;;;;5074023;28;20036;-74
2021/01/20 12:31:55;;;;;;;3.50;1.10;;;18.00;29.00;;;;;;5073993;28;20499;-71
2021/01/20 12:34:21;;;;;;;1.67;1.13;;;18.40;28.10;;;;;;5074015;28;20057;-73
2021/01/20 12:36:47;;;;;;;4.20;1.27;;;18.80;27.30;;;;;;5073954;28;20032;-72
2021/01/20 12:39:13;;;;;;;2.00;1.10;;;19.30;26.60;;;;;;5063099;28;20017;-74
2021/01/20 12:41:39;;;;;;;2.17;1.08;;;19.60;25.70;;;;;;5063761;28;20021;-73
2021/01/20 12:44:05;;;;;;;1.80;1.00;;;19.70;25.00;;;;;;5054620;28;20036;-76
2021/01/20 12:46:31;;;;;;;2.38;0.93;;;20.20;24.40;;;;;;5053782;28;20029;-74
2021/01/20 12:48:57;;;;;;;3.65;1.10;;;20.80;23.40;;;;;;5053266;28;20036;-73
2021/01/20 12:51:22;;;;;;;2.85;1.15;;;21.20;22.70;;;;;;5053708;28;20063;-73
2021/01/20 12:53:48;;;;;;;2.20;1.25;;;21.70;22.00;;;;;;5053607;28;20031;-72
2021/01/20 12:56:14;;;;;;;1.55;0.98;;;22.10;21.20;;;;;;5053429;28;20025;-73
2021/01/20 12:58:39;;;;;;;1.50;0.82;;;22.40;20.30;;;;;;5053595;28;20537;-73